Time;durP1;ratioP1;P1;durP2;ratioP2;P2;SDS_P1;SDS_P2;PMS_P1;PMS_P2;Temp;Humidity;BMP_temperature;BMP_pressure;BME280_temperature;BME280_humidity;BME280_pressure;Samples;Min_cycle;Max_cycle;Signal;HPM_P1;HPM_P2
2022/11/29 00:04:34;;;;;;;45.80;24.10;;;;;;;2.26;66.39;99507.23;222380;1243;137730;-64
2022/11/29 00:09:42;;;;;;;45.90;25.70;;;;;;;2.22;66.45;99504.35;222786;1241;138006;-65
2022/11/29 00:16:07;;;;;;;43.40;25.50;;;;;;;2.18;66.67;99502.15;222420;1239;137552;-64
2022/11/29 00:21:46;;;;;;;48.60;25.70;;;;;;;2.16;66.71;99505.16;222967;1246;137720;-65
2022/11/29 00:27:47;;;;;;;57.00;27.30;;;;;;;2.09;66.21;99498.30;221479;1250;635448;-64
2022/11/29 00:33:11;;;;;;;43.60;26.50;;;;;;;1.96;66.25;99496.98;223122;1239;137365;-64
2022/11/29 00:47:04;;;;;;;43.70;25.60;;;;;;;1.75;66.58;99493.54;224353;1234;137394;-66
2022/11/29 00:52:58;;;;;;;47.90;27.10;;;;;;;1.70;66.64;99491.02;224187;1223;137892;-65
2022/11/29 01:25:13;;;;;;;46.70;27.10;;;;;;;1.82;66.52;99482.73;221913;1241;140966;-66
2022/11/29 01:43:14;;;;;;;48.20;25.90;;;;;;;1.71;66.89;99465.11;221070;1252;638042;-64
2022/11/29 01:59:24;;;;;;;51.30;27.60;;;;;;;1.57;66.59;99452.61;221179;1252;658563;-68
2022/11/29 02:12:39;;;;;;;48.80;26.00;;;;;;;1.48;66.51;99454.35;222534;1252;137933;-66
2022/11/29 02:51:43;;;;;;;50.40;26.90;;;;;;;1.57;65.94;99470.80;221250;1227;656336;-66
2022/11/29 03:07:14;;;;;;;42.90;23.80;;;;;;;1.60;66.83;99472.84;221394;1256;635600;-67
2022/11/29 03:37:00;;;;;;;45.20;24.50;;;;;;;1.54;68.63;99500.23;221333;1249;635132;-69
2022/11/29 04:43:07;;;;;;;35.50;20.00;;;;;;;1.75;68.59;99548.65;221441;1256;635232;-67
2022/11/29 05:32:44;;;;;;;28.80;17.50;;;;;;;1.89;68.67;99598.94;221055;1253;138058;-68
2022/11/29 05:38:00;;;;;;;31.00;16.30;;;;;;;1.88;68.78;99603.17;222908;1240;138080;-69
2022/11/29 05:44:17;;;;;;;;;;;;;;;;;;;;;
2022/11/29 06:01:50;;;;;;;32.10;18.00;;;;;;;1.83;68.69;99625.98;220956;1253;681842;-69
2022/11/29 06:17:35;;;;;;;50.20;28.10;;;;;;;2.12;69.67;99641.94;222543;1256;635382;-66
2022/11/29 06:23:22;;;;;;;265.10;160.20;;;;;;;2.17;68.78;99645.35;225549;1246;137669;-66
2022/11/29 06:29:02;;;;;;;34.40;19.10;;;;;;;2.22;69.23;99649.12;225098;1257;137910;-68
2022/11/29 06:35:13;;;;;;;32.40;18.10;;;;;;;2.21;68.11;99649.13;224799;1244;139163;-64
2022/11/29 06:40:50;;;;;;;36.00;18.50;;;;;;;2.11;68.29;99648.08;224561;1248;137234;-64
2022/11/29 06:47:27;;;;;;;;;;;;;;;;;;;;;
2022/11/29 06:52:53;;;;;;;34.10;18.40;;;;;;;2.01;68.83;99662.44;225728;1246;137538;-68
2022/11/29 06:58:55;;;;;;;;;;;;;;;;;;;;;
2022/11/29 07:07:54;;;;;;;33.10;18.90;;;;;;;2.18;68.46;99669.13;221855;1251;636074;-68
2022/11/29 07:12:57;;;;;;;29.60;16.70;;;;;;;2.10;68.31;99675.90;225661;1255;137940;-69
2022/11/29 07:18:32;;;;;;;31.60;16.80;;;;;;;2.14;68.37;99673.40;225258;1244;138646;-70
2022/11/29 07:23:52;;;;;;;32.50;18.70;;;;;;;2.24;68.20;99680.23;227545;1242;139181;-68
2022/11/29 07:29:04;;;;;;;34.80;19.10;;;;;;;2.31;68.10;99687.63;226829;1241;137807;-65
2022/11/29 07:34:18;;;;;;;52.80;31.50;;;;;;;2.43;68.62;99689.52;226605;1237;137604;-70
2022/11/29 07:39:40;;;;;;;34.90;19.30;;;;;;;2.49;68.10;99692.19;227494;1231;137484;-74
2022/11/29 07:45:05;;;;;;;39.20;18.80;;;;;;;2.43;67.88;99696.85;226378;1236;138300;-69
2022/11/29 07:50:13;;;;;;;33.10;18.60;;;;;;;2.34;67.96;99696.86;226888;1245;137194;-68
2022/11/29 07:55:18;;;;;;;34.80;18.50;;;;;;;2.32;68.13;99701.27;226639;1242;138792;-69
2022/11/29 08:00:22;;;;;;;67.30;39.10;;;;;;;2.39;68.84;99703.05;226557;1243;137918;-70
2022/11/29 08:05:25;;;;;;;33.70;18.60;;;;;;;2.45;68.14;99709.09;226301;1241;138273;-69
2022/11/29 08:10:29;;;;;;;33.20;18.10;;;;;;;2.42;68.19;99713.34;226811;1238;138429;-68
2022/11/29 08:15:33;;;;;;;34.00;19.20;;;;;;;2.39;68.23;99714.63;226874;1240;137533;-70
2022/11/29 08:20:36;;;;;;;34.30;19.70;;;;;;;2.36;68.17;99712.21;227330;1241;138464;-66
2022/11/29 08:25:59;;;;;;;34.30;19.80;;;;;;;2.39;68.03;99715.50;226372;1241;138829;-68
2022/11/29 08:32:42;;;;;;;40.40;20.10;;;;;;;2.51;68.16;99716.50;227208;1234;138179;-71
2022/11/29 08:59:00;;;;;;;40.20;21.10;;;;;;;2.55;67.66;99734.82;226684;1249;138642;-70
2022/11/29 09:11:55;;;;;;;41.20;21.00;;;;;;;2.48;68.31;99732.67;225562;1239;138107;-66
2022/11/29 09:17:17;;;;;;;41.20;20.80;;;;;;;2.53;68.55;99733.99;226396;1236;137157;-67
2022/11/29 09:29:20;;;;;;;35.70;21.00;;;;;;;2.64;68.62;99726.09;226468;1243;137697;-70
2022/11/29 09:34:43;;;;;;;41.70;21.70;;;;;;;2.73;68.48;99729.77;226097;1236;138762;-70
2022/11/29 09:40:55;;;;;;;43.30;22.20;;;;;;;2.81;68.14;99735.20;225925;1251;139493;-70
2022/11/29 09:46:59;;;;;;;39.10;21.90;;;;;;;2.89;67.93;99730.86;226007;1244;137757;-64
2022/11/29 09:52:41;;;;;;;35.70;21.00;;;;;;;2.89;67.84;99725.77;226055;1235;138085;-62
2022/11/29 09:58:23;;;;;;;43.60;21.80;;;;;;;2.88;67.57;99731.74;227199;1234;137807;-67
2022/11/29 10:04:19;;;;;;;40.20;23.00;;;;;;;2.88;67.41;99725.44;225866;1237;139034;-66
2022/11/29 10:10:09;;;;;;;41.50;21.60;;;;;;;2.83;67.69;99726.05;225626;1248;138109;-67
2022/11/29 10:25:42;;;;;;;37.80;21.70;;;;;;;3.16;67.84;99732.77;222958;1251;635709;-65
2022/11/29 10:31:42;;;;;;;34.80;19.80;;;;;;;2.99;67.22;99734.67;225388;1248;137616;-64
2022/11/29 10:36:58;;;;;;;39.60;21.90;;;;;;;2.93;67.63;99732.34;225661;1239;137846;-65
2022/11/29 10:48:05;;;;;;;34.40;19.50;;;;;;;2.85;67.74;99727.24;226483;1234;138458;-66
2022/11/29 10:54:12;;;;;;;312.60;185.30;;;;;;;2.88;67.86;99722.11;225326;1238;138266;-64
2022/11/29 11:00:00;;;;;;;36.00;20.70;;;;;;;3.05;68.19;99714.92;225517;1247;138040;-65
2022/11/29 11:11:48;;;;;;;38.50;22.10;;;;;;;3.03;67.24;99706.55;225215;1248;137413;-69
2022/11/29 11:17:35;;;;;;;207.20;128.40;;;;;;;3.02;67.51;99699.73;227256;1240;137135;-66
2022/11/29 11:22:56;;;;;;;43.20;24.10;;;;;;;3.16;68.19;99703.48;227663;1226;138662;-66
2022/11/29 11:28:12;;;;;;;44.60;23.10;;;;;;;3.16;67.31;99710.48;226398;1241;138312;-66
2022/11/29 11:33:28;;;;;;;37.70;21.70;;;;;;;3.08;67.32;99712.06;227771;1227;138094;-65
2022/11/29 11:40:30;;;;;;;38.00;21.40;;;;;;;3.03;67.06;99714.63;227201;1249;137983;-66
2022/11/29 11:46:08;;;;;;;462.40;319.70;;;;;;;2.93;67.62;99714.11;225518;1240;138694;-65
2022/11/29 11:52:03;;;;;;;43.40;22.20;;;;;;;3.11;68.45;99712.88;225583;1241;138664;-63
2022/11/29 11:57:18;;;;;;;39.60;22.90;;;;;;;3.10;67.85;99716.59;225832;1239;139168;-65
2022/11/29 12:02:45;;;;;;;39.40;23.10;;;;;;;3.13;67.48;99720.04;226439;1239;139602;-64
2022/11/29 12:08:09;;;;;;;38.40;21.50;;;;;;;3.13;67.47;99717.23;226552;1241;138324;-63
2022/11/29 12:13:22;;;;;;;43.50;23.30;;;;;;;3.10;67.34;99713.59;225624;1240;139117;-63
2022/11/29 12:18:47;;;;;;;39.00;22.70;;;;;;;3.12;67.61;99716.73;226696;1245;138147;-63
2022/11/29 12:24:32;;;;;;;38.80;21.20;;;;;;;3.06;67.57;99718.93;226519;1238;137989;-62
2022/11/29 12:29:50;;;;;;;72.50;40.20;;;;;;;3.03;68.51;99721.45;226807;1238;137669;-63
2022/11/29 12:35:33;;;;;;;54.50;33.10;;;;;;;3.15;69.34;99722.42;227566;1234;137835;-63
2022/11/29 12:41:22;;;;;;;40.20;23.70;;;;;;;3.27;67.78;99720.43;226466;1241;137954;-64
2022/11/29 12:47:21;;;;;;;38.50;20.60;;;;;;;3.14;67.44;99720.19;227382;1232;139138;-63
2022/11/29 12:53:10;;;;;;;37.70;21.00;;;;;;;3.06;67.83;99727.00;226880;1249;138374;-62
2022/11/29 12:58:50;;;;;;;78.40;47.40;;;;;;;3.03;68.01;99726.70;227602;1230;138348;-63
2022/11/29 13:04:59;;;;;;;38.40;21.60;;;;;;;3.17;69.01;99729.94;226461;1241;138296;-63
2022/11/29 13:10:53;;;;;;;36.20;20.50;;;;;;;3.18;67.76;99730.77;226709;1233;140095;-64
2022/11/29 13:16:26;;;;;;;40.50;22.90;;;;;;;3.17;67.50;99736.95;226821;1238;138769;-63
2022/11/29 13:21:45;;;;;;;39.10;22.30;;;;;;;3.17;67.49;99738.52;226697;1248;138217;-64
2022/11/29 13:26:51;;;;;;;39.20;21.80;;;;;;;3.12;67.43;99748.09;226766;1241;138190;-63
2022/11/29 13:32:06;;;;;;;37.80;21.30;;;;;;;3.10;67.41;99749.18;226611;1238;137935;-63
2022/11/29 13:37:28;;;;;;;42.60;22.60;;;;;;;2.99;67.46;99757.98;226939;1245;138026;-62
2022/11/29 13:42:45;;;;;;;39.30;21.80;;;;;;;2.91;67.96;99759.02;226902;1241;137978;-62
2022/11/29 13:47:52;;;;;;;105.80;61.00;;;;;;;2.92;68.56;99763.05;226658;1242;138160;-62
2022/11/29 13:53:19;;;;;;;40.50;22.50;;;;;;;2.97;69.10;99764.88;226812;1238;137808;-63
2022/11/29 13:58:51;;;;;;;41.90;24.20;;;;;;;2.94;68.27;99771.41;226912;1244;139598;-63
2022/11/29 14:04:25;;;;;;;43.60;24.80;;;;;;;2.99;68.26;99767.27;226887;1238;138927;-62
2022/11/29 14:10:02;;;;;;;51.30;25.80;;;;;;;3.01;68.14;99767.23;226896;1236;138444;-63
2022/11/29 14:15:21;;;;;;;44.80;25.30;;;;;;;2.99;68.15;99773.41;226760;1241;138350;-63
2022/11/29 14:20:29;;;;;;;46.70;25.90;;;;;;;2.94;68.35;99775.79;226732;1240;138985;-62
2022/11/29 14:26:02;;;;;;;46.60;26.20;;;;;;;2.92;68.39;99782.48;226901;1238;138731;-62
2022/11/29 14:31:10;;;;;;;291.40;183.80;;;;;;;2.94;68.88;99780.00;226894;1241;138184;-63
2022/11/29 14:36:17;;;;;;;55.40;29.10;;;;;;;3.02;69.21;99784.92;227555;1217;138429;-63
2022/11/29 14:41:36;;;;;;;49.70;27.50;;;;;;;2.99;68.94;99788.13;227002;1238;137765;-63
2022/11/29 14:47:28;;;;;;;44.80;24.90;;;;;;;2.95;68.60;99788.92;226715;1238;139081;-63
2022/11/29 14:52:37;;;;;;;39.40;23.40;;;;;;;2.89;68.66;99792.02;226762;1238;138629;-63
2022/11/29 14:58:14;;;;;;;41.40;24.50;;;;;;;2.81;68.67;99795.48;226741;1241;138587;-62
2022/11/29 15:04:10;;;;;;;41.50;24.30;;;;;;;2.77;68.84;99798.70;227475;1243;138942;-64
2022/11/29 15:16:10;;;;;;;;;;;;;;;2.89;69.55;99800.60;226630;1248;137879;-66
2022/11/29 15:21:48;;;;;;;43.40;25.20;;;;;;;2.92;69.29;99800.38;226993;1240;124198;-66
2022/11/29 15:26:59;;;;;;;44.80;25.80;;;;;;;2.90;69.26;99803.39;226813;1238;137800;-66
2022/11/29 15:32:04;;;;;;;43.50;25.70;;;;;;;2.90;69.09;99802.34;226951;1238;138928;-65
2022/11/29 15:37:36;;;;;;;44.30;25.90;;;;;;;2.89;69.38;99803.23;226686;1241;138899;-65
2022/11/29 15:42:47;;;;;;;48.40;27.70;;;;;;;2.87;69.52;99801.16;226483;1240;138917;-65
2022/11/29 15:47:51;;;;;;;50.10;28.90;;;;;;;2.84;69.64;99804.16;226557;1236;138848;-65
2022/11/29 15:53:00;;;;;;;153.20;104.00;;;;;;;2.84;72.00;99806.11;226873;1241;138074;-65
2022/11/29 15:58:04;;;;;;;62.20;35.80;;;;;;;3.35;72.99;99801.98;227609;1238;139051;-64
2022/11/29 16:03:19;;;;;;;51.30;29.90;;;;;;;3.33;70.49;99799.22;227752;1228;138601;-66
2022/11/29 16:08:25;;;;;;;52.80;28.50;;;;;;;3.28;69.79;99803.52;226874;1241;138422;-65
2022/11/29 16:13:36;;;;;;;52.50;29.10;;;;;;;3.23;69.62;99810.98;226869;1234;138360;-64
2022/11/29 16:18:41;;;;;;;52.00;28.60;;;;;;;3.20;69.74;99820.52;227620;1228;138654;-63
2022/11/29 16:23:45;;;;;;;50.00;28.70;;;;;;;3.17;69.75;99821.46;226873;1240;138226;-64
2022/11/29 16:28:52;;;;;;;170.10;92.30;;;;;;;3.11;70.32;99825.23;226877;1233;137719;-66
2022/11/29 16:34:08;;;;;;;276.00;165.40;;;;;;;3.24;71.09;99817.98;226795;1242;138278;-65
2022/11/29 16:39:22;;;;;;;52.60;30.50;;;;;;;3.30;71.03;99815.76;227050;1241;138565;-66
2022/11/29 16:44:40;;;;;;;46.00;27.90;;;;;;;3.17;70.12;99823.55;226913;1238;138637;-64
2022/11/29 16:49:44;;;;;;;49.90;27.90;;;;;;;3.12;70.14;99831.01;226934;1226;138470;-64
2022/11/29 16:54:48;;;;;;;48.30;28.10;;;;;;;3.15;70.25;99836.58;226893;1242;139310;-63
2022/11/29 16:59:51;;;;;;;50.70;29.30;;;;;;;3.20;69.91;99842.60;226869;1238;138628;-65
2022/11/29 17:04:55;;;;;;;52.20;29.80;;;;;;;3.23;70.10;99851.14;226766;1234;138421;-64
2022/11/29 17:09:59;;;;;;;185.70;117.80;;;;;;;3.32;70.38;99853.24;226919;1248;138286;-63
2022/11/29 17:15:03;;;;;;;50.90;30.70;;;;;;;3.47;70.52;99853.29;227823;1240;138391;-64
2022/11/29 17:20:07;;;;;;;51.70;30.80;;;;;;;3.40;69.51;99851.86;226838;1242;138465;-65
2022/11/29 17:25:10;;;;;;;49.70;29.60;;;;;;;3.30;69.68;99853.28;226879;1253;137816;-64
2022/11/29 17:30:13;;;;;;;49.40;29.50;;;;;;;3.25;69.61;99855.66;226777;1245;138383;-63
2022/11/29 17:35:19;;;;;;;56.80;31.10;;;;;;;3.21;69.75;99857.85;226670;1243;137998;-63
2022/11/29 17:40:24;;;;;;;52.00;30.00;;;;;;;3.23;69.91;99858.50;226829;1244;138219;-64
2022/11/29 17:45:38;;;;;;;46.40;28.70;;;;;;;3.23;69.70;99861.14;227005;1244;138525;-61
2022/11/29 17:50:44;;;;;;;47.30;28.40;;;;;;;3.24;69.92;99863.75;226864;1244;138699;-61
2022/11/29 17:56:02;;;;;;;;;;;;;;;;;;;;;
2022/11/29 18:01:35;;;;;;;51.30;30.80;;;;;;;3.52;70.07;99859.50;226805;1241;138982;-63
2022/11/29 18:06:40;;;;;;;45.40;28.00;;;;;;;3.43;69.41;99859.52;226830;1227;138092;-64
2022/11/29 18:11:45;;;;;;;48.70;28.20;;;;;;;3.33;69.55;99861.81;226822;1231;137652;-66
2022/11/29 18:16:51;;;;;;;46.90;27.20;;;;;;;3.26;69.85;99862.82;226811;1244;138245;-68
2022/11/29 18:21:55;;;;;;;43.70;26.20;;;;;;;3.18;69.67;99867.18;226738;1237;138764;-65
2022/11/29 18:26:58;;;;;;;45.60;28.30;;;;;;;3.12;70.09;99866.77;226726;1244;138406;-65
2022/11/29 18:32:02;;;;;;;48.00;27.00;;;;;;;3.07;70.18;99869.66;227667;1224;138114;-63
2022/11/29 18:37:12;;;;;;;45.30;27.00;;;;;;;3.02;70.28;99874.13;226826;1238;137775;-64
2022/11/29 18:42:35;;;;;;;257.10;180.50;;;;;;;3.08;70.23;99872.64;227560;1233;138980;-64
2022/11/29 18:47:39;;;;;;;55.80;33.70;;;;;;;3.24;70.73;99872.34;226643;1237;139794;-64
2022/11/29 18:52:42;;;;;;;48.20;28.10;;;;;;;3.34;70.20;99866.73;226780;1230;138067;-63
2022/11/29 18:57:49;;;;;;;48.50;26.70;;;;;;;3.27;69.78;99862.64;226981;1241;137687;-62
2022/11/29 19:02:56;;;;;;;54.60;27.90;;;;;;;3.17;69.77;99863.36;226993;1241;138231;-66
2022/11/29 19:08:00;;;;;;;47.10;27.40;;;;;;;3.12;69.93;99865.55;226832;1238;137972;-63
2022/11/29 19:13:04;;;;;;;52.80;29.40;;;;;;;3.07;70.17;99873.88;226947;1241;138880;-63
2022/11/29 19:18:08;;;;;;;51.60;29.60;;;;;;;3.10;69.95;99874.02;227698;1227;138367;-63
2022/11/29 19:23:13;;;;;;;49.80;26.90;;;;;;;3.09;69.97;99872.62;226717;1234;137943;-63
2022/11/29 19:28:20;;;;;;;50.10;27.90;;;;;;;3.01;70.03;99883.11;226768;1249;138380;-63
2022/11/29 19:33:27;;;;;;;47.80;27.00;;;;;;;2.99;70.08;99888.23;226812;1234;139216;-63
2022/11/29 19:39:06;;;;;;;53.90;28.20;;;;;;;3.01;70.19;99884.67;227706;1231;138109;-63
2022/11/29 19:44:20;;;;;;;50.40;28.60;;;;;;;3.02;70.35;99888.16;227883;1234;138188;-63
2022/11/29 19:49:35;;;;;;;50.40;29.70;;;;;;;3.03;70.12;99888.15;226778;1249;138797;-62
2022/11/29 19:54:38;;;;;;;51.10;29.80;;;;;;;3.01;70.14;99890.98;226769;1233;141035;-64
2022/11/29 19:59:43;;;;;;;80.40;46.30;;;;;;;3.09;71.63;99896.81;226744;1249;138494;-63
2022/11/29 20:05:05;;;;;;;50.10;28.40;;;;;;;3.26;70.60;99891.07;227696;1227;139027;-64
2022/11/29 20:10:50;;;;;;;47.80;28.40;;;;;;;3.18;69.73;99892.27;226921;1238;138501;-64
2022/11/29 20:16:07;;;;;;;48.90;29.80;;;;;;;3.13;69.65;99898.85;225236;1248;138201;-62
2022/11/29 20:21:15;;;;;;;51.90;29.10;;;;;;;3.11;69.62;99900.98;226664;1235;139376;-63
2022/11/29 20:26:19;;;;;;;51.30;28.50;;;;;;;3.05;69.64;99901.42;227702;1242;138607;-65
2022/11/29 20:31:23;;;;;;;53.50;29.90;;;;;;;2.99;69.71;99906.98;226903;1249;139063;-63
2022/11/29 20:37:06;;;;;;;52.70;29.30;;;;;;;2.97;69.74;99911.23;226965;1249;139268;-62
2022/11/29 20:42:17;;;;;;;49.90;28.70;;;;;;;3.02;69.77;99905.33;226889;1249;139180;-63
2022/11/29 20:47:53;;;;;;;49.80;29.20;;;;;;;3.08;69.44;99903.82;226893;1249;138602;-64
2022/11/29 20:53:47;;;;;;;49.90;29.40;;;;;;;3.06;69.49;99906.15;226847;1234;138525;-65
2022/11/29 20:58:50;;;;;;;53.20;30.90;;;;;;;3.04;69.59;99910.04;226941;1233;138831;-64
2022/11/29 21:03:53;;;;;;;50.00;28.90;;;;;;;3.03;69.46;99919.70;226984;1238;137833;-65
2022/11/29 21:08:56;;;;;;;47.20;27.90;;;;;;;3.01;69.53;99922.00;226806;1249;137783;-65
2022/11/29 21:14:02;;;;;;;45.10;27.40;;;;;;;2.96;69.30;99922.98;226996;1249;140004;-65
2022/11/29 21:19:10;;;;;;;48.10;28.70;;;;;;;2.88;69.29;99927.67;227633;1241;138143;-65
2022/11/29 21:24:37;;;;;;;47.50;28.40;;;;;;;2.85;69.42;99923.15;226703;1245;138486;-66
2022/11/29 21:29:41;;;;;;;48.30;29.50;;;;;;;2.81;69.31;99924.80;226798;1239;138112;-64
2022/11/29 21:34:44;;;;;;;49.80;29.00;;;;;;;2.87;69.36;99923.14;226676;1246;138097;-66
2022/11/29 21:39:50;;;;;;;46.00;28.20;;;;;;;2.86;69.21;99923.31;227003;1245;138735;-65
2022/11/29 21:44:53;;;;;;;;;;;;;;;2.88;69.25;99923.11;226878;1249;138352;-65
2022/11/29 21:49:56;;;;;;;53.00;30.40;;;;;;;2.92;69.31;99927.95;227549;1241;124334;-65
2022/11/29 21:54:59;;;;;;;50.10;29.20;;;;;;;2.94;68.92;99926.52;226921;1234;138100;-65
2022/11/29 22:00:04;;;;;;;53.40;30.40;;;;;;;2.95;68.98;99920.38;226982;1249;137773;-65
2022/11/29 22:05:08;;;;;;;50.70;29.10;;;;;;;3.02;68.90;99920.06;227602;1233;138331;-66
2022/11/29 22:10:11;;;;;;;52.20;29.60;;;;;;;2.94;68.88;99920.90;226620;1238;138304;-69
2022/11/29 22:15:15;;;;;;;52.60;30.30;;;;;;;2.91;69.01;99921.13;226837;1233;139051;-65
2022/11/29 22:20:27;;;;;;;50.10;29.60;;;;;;;2.88;68.80;99922.59;226982;1241;138763;-66
2022/11/29 22:25:30;;;;;;;50.30;29.20;;;;;;;2.87;68.66;99924.02;226708;1226;138819;-66
2022/11/29 22:30:34;;;;;;;52.70;30.20;;;;;;;2.88;68.67;99920.31;226745;1234;138639;-66
2022/11/29 22:35:42;;;;;;;52.10;30.40;;;;;;;2.86;68.88;99923.14;226594;1249;138108;-66
2022/11/29 22:40:45;;;;;;;50.60;30.20;;;;;;;2.89;68.49;99919.94;227576;1231;139051;-66
2022/11/29 22:45:48;;;;;;;50.90;31.80;;;;;;;2.88;68.46;99924.16;227002;1244;138575;-65
2022/11/29 22:50:51;;;;;;;52.30;30.70;;;;;;;2.86;68.59;99924.90;226946;1233;138028;-65
2022/11/29 22:55:59;;;;;;;48.80;29.90;;;;;;;2.86;68.55;99928.76;227630;1234;137876;-65
2022/11/29 23:01:12;;;;;;;51.50;30.50;;;;;;;2.83;68.59;99920.21;226833;1234;139016;-66
2022/11/29 23:06:27;;;;;;;56.70;32.40;;;;;;;2.82;68.43;99921.46;226890;1233;137954;-65
2022/11/29 23:11:31;;;;;;;51.70;31.90;;;;;;;2.89;68.43;99918.02;226952;1234;140050;-65
2022/11/29 23:16:35;;;;;;;52.20;31.20;;;;;;;2.87;68.08;99925.06;226646;1237;138353;-65
2022/11/29 23:21:39;;;;;;;59.70;34.10;;;;;;;2.77;68.45;99923.81;226814;1249;138361;-65
2022/11/29 23:27:10;;;;;;;;;;;;;;;;;;;;;
2022/11/29 23:33:20;;;;;;;;;;;;;;;;;;;;;
2022/11/29 23:38:25;;;;;;;53.70;31.70;;;;;;;2.75;68.78;99929.10;226677;1249;139520;-64
2022/11/29 23:43:51;;;;;;;61.30;35.60;;;;;;;2.87;68.77;99931.73;226889;1234;139058;-64
2022/11/29 23:49:12;;;;;;;64.90;37.70;;;;;;;2.96;68.51;99926.30;228174;1225;138188;-65
2022/11/29 23:54:23;;;;;;;60.00;34.80;;;;;;;2.93;68.39;99929.85;226681;1249;138025;-63
2022/11/29 23:59:27;;;;;;;54.50;32.50;;;;;;;2.88;68.51;99932.05;226876;1241;138065;-65
